sensor_id;sensor_type;location;lat;lon;timestamp;P1;durP1;ratioP1;P2;durP2;ratioP2
62610;SDS011;48683;48.084;17.272;2022-10-19T00:00:25;32.60;;;22.73;;
62610;SDS011;48683;48.084;17.272;2022-10-19T00:02:50;36.63;;;23.85;;
62610;SDS011;48683;48.084;17.272;2022-10-19T00:05:16;37.53;;;25.98;;
62610;SDS011;48683;48.084;17.272;2022-10-19T00:07:41;38.83;;;28.15;;
62610;SDS011;48683;48.084;17.272;2022-10-19T00:10:07;40.08;;;29.00;;
62610;SDS011;48683;48.084;17.272;2022-10-19T00:12:32;41.97;;;28.58;;
62610;SDS011;48683;48.084;17.272;2022-10-19T00:14:58;47.47;;;30.45;;
62610;SDS011;48683;48.084;17.272;2022-10-19T00:17:23;44.30;;;28.77;;
62610;SDS011;48683;48.084;17.272;2022-10-19T00:19:49;42.17;;;28.60;;
62610;SDS011;48683;48.084;17.272;2022-10-19T00:22:14;39.97;;;28.60;;
62610;SDS011;48683;48.084;17.272;2022-10-19T00:24:39;39.30;;;28.15;;
62610;SDS011;48683;48.084;17.272;2022-10-19T00:27:05;44.58;;;29.65;;
62610;SDS011;48683;48.084;17.272;2022-10-19T00:29:30;40.85;;;28.90;;
62610;SDS011;48683;48.084;17.272;2022-10-19T00:31:56;41.95;;;30.50;;
62610;SDS011;48683;48.084;17.272;2022-10-19T00:34:21;37.95;;;27.58;;
62610;SDS011;48683;48.084;17.272;2022-10-19T00:36:47;42.80;;;29.75;;
62610;SDS011;48683;48.084;17.272;2022-10-19T00:39:14;47.22;;;30.45;;
62610;SDS011;48683;48.084;17.272;2022-10-19T00:41:41;44.60;;;30.58;;
62610;SDS011;48683;48.084;17.272;2022-10-19T00:46:37;43.53;;;31.38;;
62610;SDS011;48683;48.084;17.272;2022-10-19T00:49:19;47.58;;;31.90;;
62610;SDS011;48683;48.084;17.272;2022-10-19T00:51:49;47.58;;;32.28;;
62610;SDS011;48683;48.084;17.272;2022-10-19T00:54:18;43.47;;;31.02;;
62610;SDS011;48683;48.084;17.272;2022-10-19T00:56:44;47.30;;;32.40;;
62610;SDS011;48683;48.084;17.272;2022-10-19T00:59:12;44.53;;;30.83;;
62610;SDS011;48683;48.084;17.272;2022-10-19T01:01:40;47.83;;;32.78;;
62610;SDS011;48683;48.084;17.272;2022-10-19T01:04:07;53.58;;;34.63;;
62610;SDS011;48683;48.084;17.272;2022-10-19T01:06:33;56.27;;;37.00;;
62610;SDS011;48683;48.084;17.272;2022-10-19T01:08:59;52.72;;;33.85;;
62610;SDS011;48683;48.084;17.272;2022-10-19T01:16:55;55.95;;;36.72;;
62610;SDS011;48683;48.084;17.272;2022-10-19T01:25:38;53.58;;;35.80;;
62610;SDS011;48683;48.084;17.272;2022-10-19T01:28:31;56.10;;;36.63;;
62610;SDS011;48683;48.084;17.272;2022-10-19T01:34:07;58.20;;;38.08;;
62610;SDS011;48683;48.084;17.272;2022-10-19T01:36:48;58.15;;;38.10;;
62610;SDS011;48683;48.084;17.272;2022-10-19T01:40:13;59.47;;;38.35;;
62610;SDS011;48683;48.084;17.272;2022-10-19T01:45:05;58.37;;;38.17;;
62610;SDS011;48683;48.084;17.272;2022-10-19T01:50:45;54.85;;;36.13;;
62610;SDS011;48683;48.084;17.272;2022-10-19T01:53:34;56.58;;;37.75;;
62610;SDS011;48683;48.084;17.272;2022-10-19T01:56:04;53.08;;;37.42;;
62610;SDS011;48683;48.084;17.272;2022-10-19T01:58:32;56.80;;;37.38;;
62610;SDS011;48683;48.084;17.272;2022-10-19T02:01:01;64.50;;;38.95;;
62610;SDS011;48683;48.084;17.272;2022-10-19T02:03:29;54.58;;;38.15;;
62610;SDS011;48683;48.084;17.272;2022-10-19T02:05:55;53.38;;;36.38;;
62610;SDS011;48683;48.084;17.272;2022-10-19T02:08:30;48.05;;;33.50;;
62610;SDS011;48683;48.084;17.272;2022-10-19T02:11:17;39.75;;;29.63;;
62610;SDS011;48683;48.084;17.272;2022-10-19T02:13:46;39.35;;;29.05;;
62610;SDS011;48683;48.084;17.272;2022-10-19T02:16:15;39.83;;;28.92;;
62610;SDS011;48683;48.084;17.272;2022-10-19T02:18:46;39.38;;;28.67;;
62610;SDS011;48683;48.084;17.272;2022-10-19T02:21:15;37.30;;;27.77;;
62610;SDS011;48683;48.084;17.272;2022-10-19T02:23:40;34.73;;;26.23;;
62610;SDS011;48683;48.084;17.272;2022-10-19T02:26:06;36.03;;;28.10;;
62610;SDS011;48683;48.084;17.272;2022-10-19T02:28:32;31.65;;;26.13;;
62610;SDS011;48683;48.084;17.272;2022-10-19T02:30:58;32.85;;;25.52;;
62610;SDS011;48683;48.084;17.272;2022-10-19T02:33:24;29.67;;;24.20;;
62610;SDS011;48683;48.084;17.272;2022-10-19T02:35:50;30.88;;;22.95;;
62610;SDS011;48683;48.084;17.272;2022-10-19T02:38:17;27.92;;;21.65;;
62610;SDS011;48683;48.084;17.272;2022-10-19T02:41:09;24.05;;;20.98;;
62610;SDS011;48683;48.084;17.272;2022-10-19T02:43:31;22.85;;;18.25;;
62610;SDS011;48683;48.084;17.272;2022-10-19T02:46:00;22.55;;;17.08;;
62610;SDS011;48683;48.084;17.272;2022-10-19T02:48:30;19.45;;;16.15;;
62610;SDS011;48683;48.084;17.272;2022-10-19T02:50:58;19.25;;;15.88;;
62610;SDS011;48683;48.084;17.272;2022-10-19T02:53:23;17.38;;;14.90;;
62610;SDS011;48683;48.084;17.272;2022-10-19T02:55:48;18.65;;;14.02;;
62610;SDS011;48683;48.084;17.272;2022-10-19T02:58:15;16.88;;;13.90;;
62610;SDS011;48683;48.084;17.272;2022-10-19T03:00:40;15.20;;;12.63;;
62610;SDS011;48683;48.084;17.272;2022-10-19T03:03:06;14.48;;;11.82;;
62610;SDS011;48683;48.084;17.272;2022-10-19T03:05:31;13.82;;;11.52;;
62610;SDS011;48683;48.084;17.272;2022-10-19T03:07:56;11.48;;;10.02;;
62610;SDS011;48683;48.084;17.272;2022-10-19T03:10:22;11.63;;;8.55;;
62610;SDS011;48683;48.084;17.272;2022-10-19T03:12:47;9.18;;;7.50;;
62610;SDS011;48683;48.084;17.272;2022-10-19T03:15:13;9.35;;;8.23;;
62610;SDS011;48683;48.084;17.272;2022-10-19T03:20:05;8.93;;;8.03;;
62610;SDS011;48683;48.084;17.272;2022-10-19T03:22:31;11.77;;;8.45;;
62610;SDS011;48683;48.084;17.272;2022-10-19T03:24:57;10.25;;;8.32;;
62610;SDS011;48683;48.084;17.272;2022-10-19T03:27:22;9.30;;;8.20;;
62610;SDS011;48683;48.084;17.272;2022-10-19T03:29:47;9.30;;;7.88;;
62610;SDS011;48683;48.084;17.272;2022-10-19T03:32:13;8.27;;;7.20;;
62610;SDS011;48683;48.084;17.272;2022-10-19T03:34:38;9.40;;;7.47;;
62610;SDS011;48683;48.084;17.272;2022-10-19T03:37:03;10.73;;;8.07;;
62610;SDS011;48683;48.084;17.272;2022-10-19T03:39:29;8.80;;;7.90;;
62610;SDS011;48683;48.084;17.272;2022-10-19T03:41:54;9.57;;;8.00;;
62610;SDS011;48683;48.084;17.272;2022-10-19T03:44:20;10.25;;;8.40;;
62610;SDS011;48683;48.084;17.272;2022-10-19T03:46:45;9.40;;;8.10;;
62610;SDS011;48683;48.084;17.272;2022-10-19T03:49:11;9.00;;;8.13;;
62610;SDS011;48683;48.084;17.272;2022-10-19T03:51:36;9.10;;;8.20;;
62610;SDS011;48683;48.084;17.272;2022-10-19T03:54:06;9.48;;;8.48;;
62610;SDS011;48683;48.084;17.272;2022-10-19T03:56:33;10.20;;;8.98;;
62610;SDS011;48683;48.084;17.272;2022-10-19T03:59:00;8.77;;;7.88;;
62610;SDS011;48683;48.084;17.272;2022-10-19T04:01:27;8.50;;;7.55;;
62610;SDS011;48683;48.084;17.272;2022-10-19T04:04:04;8.23;;;7.45;;
62610;SDS011;48683;48.084;17.272;2022-10-19T04:06:33;8.35;;;7.55;;
62610;SDS011;48683;48.084;17.272;2022-10-19T04:09:01;9.73;;;7.88;;
62610;SDS011;48683;48.084;17.272;2022-10-19T04:11:28;9.20;;;8.20;;
62610;SDS011;48683;48.084;17.272;2022-10-19T04:13:55;8.10;;;7.30;;
62610;SDS011;48683;48.084;17.272;2022-10-19T04:16:22;7.80;;;7.05;;
62610;SDS011;48683;48.084;17.272;2022-10-19T04:18:49;7.10;;;6.40;;
62610;SDS011;48683;48.084;17.272;2022-10-19T04:23:51;6.25;;;5.65;;
62610;SDS011;48683;48.084;17.272;2022-10-19T04:26:18;6.00;;;5.40;;
62610;SDS011;48683;48.084;17.272;2022-10-19T04:28:43;5.30;;;4.80;;
62610;SDS011;48683;48.084;17.272;2022-10-19T04:31:09;5.85;;;5.30;;
62610;SDS011;48683;48.084;17.272;2022-10-19T04:33:34;5.43;;;4.90;;
62610;SDS011;48683;48.084;17.272;2022-10-19T04:36:09;5.75;;;5.03;;
62610;SDS011;48683;48.084;17.272;2022-10-19T04:38:36;6.10;;;4.88;;
62610;SDS011;48683;48.084;17.272;2022-10-19T04:41:02;6.18;;;5.68;;
62610;SDS011;48683;48.084;17.272;2022-10-19T04:43:38;9.68;;;5.65;;
62610;SDS011;48683;48.084;17.272;2022-10-19T04:46:05;6.70;;;5.67;;
62610;SDS011;48683;48.084;17.272;2022-10-19T04:48:32;6.43;;;5.82;;
62610;SDS011;48683;48.084;17.272;2022-10-19T04:50:59;10.32;;;6.25;;
62610;SDS011;48683;48.084;17.272;2022-10-19T04:53:24;7.32;;;6.65;;
62610;SDS011;48683;48.084;17.272;2022-10-19T04:55:50;7.00;;;6.00;;
62610;SDS011;48683;48.084;17.272;2022-10-19T04:58:16;8.77;;;6.65;;
62610;SDS011;48683;48.084;17.272;2022-10-19T05:00:41;7.28;;;6.57;;
62610;SDS011;48683;48.084;17.272;2022-10-19T05:03:06;9.40;;;7.47;;
62610;SDS011;48683;48.084;17.272;2022-10-19T05:05:32;8.27;;;7.47;;
62610;SDS011;48683;48.084;17.272;2022-10-19T05:07:58;8.33;;;7.23;;
62610;SDS011;48683;48.084;17.272;2022-10-19T05:10:24;8.90;;;8.00;;
62610;SDS011;48683;48.084;17.272;2022-10-19T05:12:49;8.27;;;7.47;;
62610;SDS011;48683;48.084;17.272;2022-10-19T05:15:14;8.45;;;7.55;;
62610;SDS011;48683;48.084;17.272;2022-10-19T05:17:40;9.77;;;8.00;;
62610;SDS011;48683;48.084;17.272;2022-10-19T05:20:05;9.50;;;7.95;;
62610;SDS011;48683;48.084;17.272;2022-10-19T05:22:31;8.60;;;7.70;;
62610;SDS011;48683;48.084;17.272;2022-10-19T05:24:56;10.25;;;7.93;;
62610;SDS011;48683;48.084;17.272;2022-10-19T05:27:22;10.90;;;8.50;;
62610;SDS011;48683;48.084;17.272;2022-10-19T05:29:47;10.75;;;8.48;;
62610;SDS011;48683;48.084;17.272;2022-10-19T05:32:13;10.93;;;7.93;;
62610;SDS011;48683;48.084;17.272;2022-10-19T05:34:38;17.42;;;9.55;;
62610;SDS011;48683;48.084;17.272;2022-10-19T05:37:03;14.48;;;9.30;;
62610;SDS011;48683;48.084;17.272;2022-10-19T05:39:29;10.32;;;8.25;;
62610;SDS011;48683;48.084;17.272;2022-10-19T05:41:54;15.38;;;8.50;;
62610;SDS011;48683;48.084;17.272;2022-10-19T05:44:20;11.55;;;7.80;;
62610;SDS011;48683;48.084;17.272;2022-10-19T05:46:47;14.43;;;8.20;;
62610;SDS011;48683;48.084;17.272;2022-10-19T05:49:15;10.02;;;7.50;;
62610;SDS011;48683;48.084;17.272;2022-10-19T05:51:41;9.63;;;7.63;;
62610;SDS011;48683;48.084;17.272;2022-10-19T05:54:07;12.05;;;9.80;;
62610;SDS011;48683;48.084;17.272;2022-10-19T05:56:33;18.92;;;11.77;;
62610;SDS011;48683;48.084;17.272;2022-10-19T05:59:00;29.50;;;12.35;;
62610;SDS011;48683;48.084;17.272;2022-10-19T06:01:28;34.38;;;13.35;;
62610;SDS011;48683;48.084;17.272;2022-10-19T06:03:54;28.77;;;13.03;;
62610;SDS011;48683;48.084;17.272;2022-10-19T06:06:21;27.77;;;13.05;;
62610;SDS011;48683;48.084;17.272;2022-10-19T06:08:47;14.80;;;12.32;;
62610;SDS011;48683;48.084;17.272;2022-10-19T06:11:14;16.48;;;12.18;;
62610;SDS011;48683;48.084;17.272;2022-10-19T06:13:42;15.65;;;11.20;;
62610;SDS011;48683;48.084;17.272;2022-10-19T06:16:09;15.98;;;11.05;;
62610;SDS011;48683;48.084;17.272;2022-10-19T06:18:35;21.05;;;11.43;;
62610;SDS011;48683;48.084;17.272;2022-10-19T06:21:02;19.42;;;10.82;;
62610;SDS011;48683;48.084;17.272;2022-10-19T06:23:29;18.73;;;10.70;;
62610;SDS011;48683;48.084;17.272;2022-10-19T06:25:56;15.10;;;10.57;;
62610;SDS011;48683;48.084;17.272;2022-10-19T06:28:21;16.50;;;11.13;;
62610;SDS011;48683;48.084;17.272;2022-10-19T06:30:47;14.25;;;10.55;;
62610;SDS011;48683;48.084;17.272;2022-10-19T06:33:12;13.27;;;9.75;;
62610;SDS011;48683;48.084;17.272;2022-10-19T06:35:37;18.70;;;10.50;;
62610;SDS011;48683;48.084;17.272;2022-10-19T06:38:06;21.13;;;11.70;;
62610;SDS011;48683;48.084;17.272;2022-10-19T06:40:31;20.33;;;10.32;;
62610;SDS011;48683;48.084;17.272;2022-10-19T06:42:57;21.33;;;11.90;;
62610;SDS011;48683;48.084;17.272;2022-10-19T06:45:23;18.73;;;10.90;;
62610;SDS011;48683;48.084;17.272;2022-10-19T06:47:48;17.58;;;10.18;;
62610;SDS011;48683;48.084;17.272;2022-10-19T06:50:13;16.52;;;13.00;;
62610;SDS011;48683;48.084;17.272;2022-10-19T06:52:39;18.08;;;11.02;;
62610;SDS011;48683;48.084;17.272;2022-10-19T06:55:05;12.68;;;8.90;;
62610;SDS011;48683;48.084;17.272;2022-10-19T06:57:30;9.75;;;6.38;;
62610;SDS011;48683;48.084;17.272;2022-10-19T06:59:56;7.47;;;6.00;;
62610;SDS011;48683;48.084;17.272;2022-10-19T07:02:21;8.02;;;6.10;;
62610;SDS011;48683;48.084;17.272;2022-10-19T07:04:46;10.25;;;6.63;;
62610;SDS011;48683;48.084;17.272;2022-10-19T07:07:12;6.85;;;6.07;;
62610;SDS011;48683;48.084;17.272;2022-10-19T07:09:37;7.53;;;5.50;;
62610;SDS011;48683;48.084;17.272;2022-10-19T07:12:02;10.13;;;4.88;;
62610;SDS011;48683;48.084;17.272;2022-10-19T07:14:28;7.03;;;4.80;;
62610;SDS011;48683;48.084;17.272;2022-10-19T07:16:53;4.85;;;4.32;;
62610;SDS011;48683;48.084;17.272;2022-10-19T07:19:19;6.88;;;4.82;;
62610;SDS011;48683;48.084;17.272;2022-10-19T07:21:48;7.68;;;5.00;;
62610;SDS011;48683;48.084;17.272;2022-10-19T07:24:14;6.75;;;4.22;;
62610;SDS011;48683;48.084;17.272;2022-10-19T07:26:40;6.55;;;4.38;;
62610;SDS011;48683;48.084;17.272;2022-10-19T07:29:05;7.32;;;4.35;;
62610;SDS011;48683;48.084;17.272;2022-10-19T07:31:31;7.45;;;4.53;;
62610;SDS011;48683;48.084;17.272;2022-10-19T07:33:57;5.35;;;4.50;;
62610;SDS011;48683;48.084;17.272;2022-10-19T07:36:24;5.22;;;4.28;;
62610;SDS011;48683;48.084;17.272;2022-10-19T07:38:50;5.60;;;4.63;;
62610;SDS011;48683;48.084;17.272;2022-10-19T07:41:17;5.43;;;4.60;;
62610;SDS011;48683;48.084;17.272;2022-10-19T07:43:44;5.57;;;4.97;;
62610;SDS011;48683;48.084;17.272;2022-10-19T07:46:14;5.70;;;5.15;;
62610;SDS011;48683;48.084;17.272;2022-10-19T07:48:41;5.95;;;5.35;;
62610;SDS011;48683;48.084;17.272;2022-10-19T07:51:08;6.37;;;5.30;;
62610;SDS011;48683;48.084;17.272;2022-10-19T07:53:34;9.27;;;5.47;;
62610;SDS011;48683;48.084;17.272;2022-10-19T07:58:29;8.02;;;5.57;;
62610;SDS011;48683;48.084;17.272;2022-10-19T08:01:02;7.67;;;5.23;;
62610;SDS011;48683;48.084;17.272;2022-10-19T08:03:32;7.90;;;5.03;;
62610;SDS011;48683;48.084;17.272;2022-10-19T08:05:59;5.75;;;5.05;;
62610;SDS011;48683;48.084;17.272;2022-10-19T08:10:50;6.00;;;4.97;;
62610;SDS011;48683;48.084;17.272;2022-10-19T08:13:16;5.00;;;4.30;;
62610;SDS011;48683;48.084;17.272;2022-10-19T08:15:41;5.57;;;5.03;;
62610;SDS011;48683;48.084;17.272;2022-10-19T08:18:07;5.07;;;4.57;;
62610;SDS011;48683;48.084;17.272;2022-10-19T08:20:32;6.20;;;5.05;;
62610;SDS011;48683;48.084;17.272;2022-10-19T08:22:57;6.22;;;5.25;;
62610;SDS011;48683;48.084;17.272;2022-10-19T08:25:23;5.05;;;4.55;;
62610;SDS011;48683;48.084;17.272;2022-10-19T08:27:48;5.80;;;5.20;;
62610;SDS011;48683;48.084;17.272;2022-10-19T08:30:13;5.30;;;4.43;;
62610;SDS011;48683;48.084;17.272;2022-10-19T08:32:39;5.47;;;4.20;;
62610;SDS011;48683;48.084;17.272;2022-10-19T08:35:04;6.28;;;5.18;;
62610;SDS011;48683;48.084;17.272;2022-10-19T08:37:30;5.22;;;4.43;;
62610;SDS011;48683;48.084;17.272;2022-10-19T08:39:55;5.72;;;4.70;;
62610;SDS011;48683;48.084;17.272;2022-10-19T08:42:43;5.37;;;4.80;;
62610;SDS011;48683;48.084;17.272;2022-10-19T08:45:21;6.32;;;5.13;;
62610;SDS011;48683;48.084;17.272;2022-10-19T08:47:59;7.35;;;4.43;;
62610;SDS011;48683;48.084;17.272;2022-10-19T08:50:38;6.45;;;4.15;;
62610;SDS011;48683;48.084;17.272;2022-10-19T08:53:06;4.55;;;4.07;;
62610;SDS011;48683;48.084;17.272;2022-10-19T09:03:46;5.53;;;5.00;;
62610;SDS011;48683;48.084;17.272;2022-10-19T09:08:49;6.18;;;4.40;;
62610;SDS011;48683;48.084;17.272;2022-10-19T09:11:17;6.97;;;4.97;;
62610;SDS011;48683;48.084;17.272;2022-10-19T09:13:50;9.50;;;4.90;;
62610;SDS011;48683;48.084;17.272;2022-10-19T09:16:24;5.72;;;4.53;;
62610;SDS011;48683;48.084;17.272;2022-10-19T09:18:49;5.00;;;4.50;;
62610;SDS011;48683;48.084;17.272;2022-10-19T09:23:58;5.38;;;4.43;;
62610;SDS011;48683;48.084;17.272;2022-10-19T09:26:30;5.95;;;4.53;;
62610;SDS011;48683;48.084;17.272;2022-10-19T09:29:05;5.65;;;4.60;;
62610;SDS011;48683;48.084;17.272;2022-10-19T09:31:37;7.72;;;3.80;;
62610;SDS011;48683;48.084;17.272;2022-10-19T09:36:41;4.63;;;3.63;;
62610;SDS011;48683;48.084;17.272;2022-10-19T09:39:12;4.07;;;3.75;;
62610;SDS011;48683;48.084;17.272;2022-10-19T09:44:38;4.30;;;3.63;;
62610;SDS011;48683;48.084;17.272;2022-10-19T09:49:47;6.60;;;5.25;;
62610;SDS011;48683;48.084;17.272;2022-10-19T09:52:23;5.37;;;3.97;;
62610;SDS011;48683;48.084;17.272;2022-10-19T09:54:58;5.40;;;4.15;;
62610;SDS011;48683;48.084;17.272;2022-10-19T09:57:29;5.75;;;4.53;;
62610;SDS011;48683;48.084;17.272;2022-10-19T09:59:54;4.67;;;4.20;;
62610;SDS011;48683;48.084;17.272;2022-10-19T10:02:21;5.80;;;4.50;;
62610;SDS011;48683;48.084;17.272;2022-10-19T10:04:54;6.05;;;4.40;;
62610;SDS011;48683;48.084;17.272;2022-10-19T10:07:22;9.40;;;4.97;;
62610;SDS011;48683;48.084;17.272;2022-10-19T10:09:51;7.40;;;4.70;;
62610;SDS011;48683;48.084;17.272;2022-10-19T10:12:16;8.37;;;5.40;;
62610;SDS011;48683;48.084;17.272;2022-10-19T10:14:42;5.23;;;4.73;;
62610;SDS011;48683;48.084;17.272;2022-10-19T10:17:14;6.22;;;4.25;;
62610;SDS011;48683;48.084;17.272;2022-10-19T10:20:01;5.25;;;4.22;;
62610;SDS011;48683;48.084;17.272;2022-10-19T10:22:31;9.90;;;4.53;;
62610;SDS011;48683;48.084;17.272;2022-10-19T10:24:58;5.75;;;4.35;;
62610;SDS011;48683;48.084;17.272;2022-10-19T10:27:34;7.50;;;4.37;;
62610;SDS011;48683;48.084;17.272;2022-10-19T10:30:10;5.53;;;4.50;;
62610;SDS011;48683;48.084;17.272;2022-10-19T10:32:46;5.43;;;4.57;;
62610;SDS011;48683;48.084;17.272;2022-10-19T10:35:17;5.43;;;4.88;;
62610;SDS011;48683;48.084;17.272;2022-10-19T10:37:46;5.88;;;4.30;;
62610;SDS011;48683;48.084;17.272;2022-10-19T10:42:52;9.10;;;4.68;;
62610;SDS011;48683;48.084;17.272;2022-10-19T10:45:24;5.72;;;4.45;;
62610;SDS011;48683;48.084;17.272;2022-10-19T10:47:54;5.18;;;4.47;;
62610;SDS011;48683;48.084;17.272;2022-10-19T10:50:21;4.78;;;4.00;;
62610;SDS011;48683;48.084;17.272;2022-10-19T10:52:57;6.15;;;4.32;;
62610;SDS011;48683;48.084;17.272;2022-10-19T10:55:27;4.95;;;4.00;;
62610;SDS011;48683;48.084;17.272;2022-10-19T11:00:26;8.23;;;4.20;;
62610;SDS011;48683;48.084;17.272;2022-10-19T11:02:55;7.78;;;4.45;;
62610;SDS011;48683;48.084;17.272;2022-10-19T11:05:30;6.03;;;5.07;;
62610;SDS011;48683;48.084;17.272;2022-10-19T11:13:52;5.90;;;4.80;;
62610;SDS011;48683;48.084;17.272;2022-10-19T11:16:24;5.55;;;5.00;;
62610;SDS011;48683;48.084;17.272;2022-10-19T11:19:06;5.45;;;4.95;;
62610;SDS011;48683;48.084;17.272;2022-10-19T11:43:45;5.53;;;4.90;;
62610;SDS011;48683;48.084;17.272;2022-10-19T11:51:34;4.85;;;4.35;;
62610;SDS011;48683;48.084;17.272;2022-10-19T11:56:58;6.13;;;5.38;;
62610;SDS011;48683;48.084;17.272;2022-10-19T12:07:23;7.93;;;5.25;;
62610;SDS011;48683;48.084;17.272;2022-10-19T12:10:11;6.13;;;5.53;;
62610;SDS011;48683;48.084;17.272;2022-10-19T12:12:43;5.72;;;4.60;;
62610;SDS011;48683;48.084;17.272;2022-10-19T12:15:15;5.55;;;4.95;;
62610;SDS011;48683;48.084;17.272;2022-10-19T12:18:28;7.05;;;4.97;;
62610;SDS011;48683;48.084;17.272;2022-10-19T12:21:01;9.05;;;4.93;;
62610;SDS011;48683;48.084;17.272;2022-10-19T12:23:32;7.00;;;4.72;;
62610;SDS011;48683;48.084;17.272;2022-10-19T12:26:04;7.00;;;4.72;;
62610;SDS011;48683;48.084;17.272;2022-10-19T12:28:36;8.52;;;4.97;;
62610;SDS011;48683;48.084;17.272;2022-10-19T12:31:04;8.65;;;5.30;;
62610;SDS011;48683;48.084;17.272;2022-10-19T12:36:18;7.75;;;5.38;;
62610;SDS011;48683;48.084;17.272;2022-10-19T12:41:52;7.20;;;5.18;;
62610;SDS011;48683;48.084;17.272;2022-10-19T12:47:05;9.43;;;5.53;;
62610;SDS011;48683;48.084;17.272;2022-10-19T12:49:36;6.00;;;5.28;;
62610;SDS011;48683;48.084;17.272;2022-10-19T12:52:16;7.30;;;5.13;;
62610;SDS011;48683;48.084;17.272;2022-10-19T12:57:59;6.63;;;5.03;;
62610;SDS011;48683;48.084;17.272;2022-10-19T13:00:36;9.13;;;4.95;;
62610;SDS011;48683;48.084;17.272;2022-10-19T13:03:06;5.55;;;4.75;;
62610;SDS011;48683;48.084;17.272;2022-10-19T13:05:40;6.03;;;5.38;;
62610;SDS011;48683;48.084;17.272;2022-10-19T13:08:06;7.35;;;6.28;;
62610;SDS011;48683;48.084;17.272;2022-10-19T13:10:32;8.35;;;5.82;;
62610;SDS011;48683;48.084;17.272;2022-10-19T13:12:58;8.52;;;6.22;;
62610;SDS011;48683;48.084;17.272;2022-10-19T13:17:59;6.82;;;5.47;;
62610;SDS011;48683;48.084;17.272;2022-10-19T13:25:27;9.50;;;5.57;;
62610;SDS011;48683;48.084;17.272;2022-10-19T13:32:59;12.63;;;5.93;;
62610;SDS011;48683;48.084;17.272;2022-10-19T13:40:37;7.30;;;5.88;;
62610;SDS011;48683;48.084;17.272;2022-10-19T13:54:28;8.40;;;6.22;;
62610;SDS011;48683;48.084;17.272;2022-10-19T14:07:31;7.97;;;4.50;;
62610;SDS011;48683;48.084;17.272;2022-10-19T14:10:07;8.90;;;3.83;;
62610;SDS011;48683;48.084;17.272;2022-10-19T14:12:40;9.10;;;4.80;;
62610;SDS011;48683;48.084;17.272;2022-10-19T14:15:12;9.20;;;4.55;;
62610;SDS011;48683;48.084;17.272;2022-10-19T14:17:52;8.13;;;4.40;;
62610;SDS011;48683;48.084;17.272;2022-10-19T14:22:51;8.23;;;4.22;;
62610;SDS011;48683;48.084;17.272;2022-10-19T14:25:18;8.37;;;4.00;;
62610;SDS011;48683;48.084;17.272;2022-10-19T14:27:46;5.38;;;3.75;;
62610;SDS011;48683;48.084;17.272;2022-10-19T14:30:21;5.43;;;3.75;;
62610;SDS011;48683;48.084;17.272;2022-10-19T14:32:48;9.00;;;4.25;;
62610;SDS011;48683;48.084;17.272;2022-10-19T14:35:18;6.67;;;4.07;;
62610;SDS011;48683;48.084;17.272;2022-10-19T14:37:46;7.85;;;3.70;;
62610;SDS011;48683;48.084;17.272;2022-10-19T14:42:46;8.20;;;4.22;;
62610;SDS011;48683;48.084;17.272;2022-10-19T14:45:14;7.47;;;3.85;;
62610;SDS011;48683;48.084;17.272;2022-10-19T14:50:22;6.80;;;3.60;;
62610;SDS011;48683;48.084;17.272;2022-10-19T14:52:51;8.70;;;3.67;;
62610;SDS011;48683;48.084;17.272;2022-10-19T14:55:23;6.10;;;3.92;;
62610;SDS011;48683;48.084;17.272;2022-10-19T14:57:55;7.38;;;3.80;;
62610;SDS011;48683;48.084;17.272;2022-10-19T15:00:21;7.37;;;3.67;;
62610;SDS011;48683;48.084;17.272;2022-10-19T15:05:20;7.78;;;3.58;;
62610;SDS011;48683;48.084;17.272;2022-10-19T15:07:48;7.18;;;3.50;;
62610;SDS011;48683;48.084;17.272;2022-10-19T15:10:18;6.03;;;3.40;;
62610;SDS011;48683;48.084;17.272;2022-10-19T15:12:46;7.45;;;3.55;;
62610;SDS011;48683;48.084;17.272;2022-10-19T15:20:37;7.88;;;3.30;;
62610;SDS011;48683;48.084;17.272;2022-10-19T15:26:30;7.45;;;3.58;;
62610;SDS011;48683;48.084;17.272;2022-10-19T15:28:48;7.85;;;3.15;;
62610;SDS011;48683;48.084;17.272;2022-10-19T15:31:18;7.30;;;3.20;;
62610;SDS011;48683;48.084;17.272;2022-10-19T15:33:48;6.10;;;3.17;;
62610;SDS011;48683;48.084;17.272;2022-10-19T15:36:16;4.38;;;3.08;;
62610;SDS011;48683;48.084;17.272;2022-10-19T15:38:44;4.50;;;3.22;;
62610;SDS011;48683;48.084;17.272;2022-10-19T15:41:38;6.25;;;3.58;;
62610;SDS011;48683;48.084;17.272;2022-10-19T15:44:05;6.47;;;3.20;;
62610;SDS011;48683;48.084;17.272;2022-10-19T15:52:14;7.85;;;3.53;;
62610;SDS011;48683;48.084;17.272;2022-10-19T15:54:39;6.00;;;3.28;;
62610;SDS011;48683;48.084;17.272;2022-10-19T15:57:13;9.07;;;3.40;;
62610;SDS011;48683;48.084;17.272;2022-10-19T16:00:12;5.43;;;3.10;;
62610;SDS011;48683;48.084;17.272;2022-10-19T16:02:39;5.32;;;2.75;;
62610;SDS011;48683;48.084;17.272;2022-10-19T16:05:05;9.18;;;3.17;;
62610;SDS011;48683;48.084;17.272;2022-10-19T16:07:31;5.47;;;3.25;;
62610;SDS011;48683;48.084;17.272;2022-10-19T16:09:59;7.50;;;3.00;;
62610;SDS011;48683;48.084;17.272;2022-10-19T16:12:25;4.75;;;2.50;;
62610;SDS011;48683;48.084;17.272;2022-10-19T16:14:51;6.45;;;2.50;;
62610;SDS011;48683;48.084;17.272;2022-10-19T16:17:17;5.97;;;3.03;;
62610;SDS011;48683;48.084;17.272;2022-10-19T16:19:42;4.93;;;3.00;;
62610;SDS011;48683;48.084;17.272;2022-10-19T16:22:08;6.03;;;2.50;;
62610;SDS011;48683;48.084;17.272;2022-10-19T16:24:34;8.23;;;2.60;;
62610;SDS011;48683;48.084;17.272;2022-10-19T16:26:59;7.28;;;2.97;;
62610;SDS011;48683;48.084;17.272;2022-10-19T16:29:25;4.97;;;2.35;;
62610;SDS011;48683;48.084;17.272;2022-10-19T16:31:50;4.95;;;2.53;;
62610;SDS011;48683;48.084;17.272;2022-10-19T16:34:16;4.47;;;2.25;;
62610;SDS011;48683;48.084;17.272;2022-10-19T16:36:41;5.65;;;2.50;;
62610;SDS011;48683;48.084;17.272;2022-10-19T16:39:07;4.93;;;2.70;;
62610;SDS011;48683;48.084;17.272;2022-10-19T16:41:32;8.57;;;2.95;;
62610;SDS011;48683;48.084;17.272;2022-10-19T16:43:58;8.90;;;2.53;;
62610;SDS011;48683;48.084;17.272;2022-10-19T16:46:23;8.18;;;2.25;;
62610;SDS011;48683;48.084;17.272;2022-10-19T16:48:50;6.70;;;2.90;;
62610;SDS011;48683;48.084;17.272;2022-10-19T16:51:17;6.50;;;2.83;;
62610;SDS011;48683;48.084;17.272;2022-10-19T16:53:48;7.90;;;2.60;;
62610;SDS011;48683;48.084;17.272;2022-10-19T16:56:15;4.90;;;2.60;;
62610;SDS011;48683;48.084;17.272;2022-10-19T16:58:41;4.63;;;3.13;;
62610;SDS011;48683;48.084;17.272;2022-10-19T17:01:07;8.88;;;4.07;;
62610;SDS011;48683;48.084;17.272;2022-10-19T17:03:33;6.57;;;3.25;;
62610;SDS011;48683;48.084;17.272;2022-10-19T17:06:05;7.57;;;4.22;;
62610;SDS011;48683;48.084;17.272;2022-10-19T17:08:32;9.02;;;3.22;;
62610;SDS011;48683;48.084;17.272;2022-10-19T17:11:07;5.60;;;3.28;;
62610;SDS011;48683;48.084;17.272;2022-10-19T17:13:37;8.15;;;3.08;;
62610;SDS011;48683;48.084;17.272;2022-10-19T17:16:03;5.07;;;2.50;;
62610;SDS011;48683;48.084;17.272;2022-10-19T17:21:00;6.17;;;2.80;;
62610;SDS011;48683;48.084;17.272;2022-10-19T17:23:29;7.75;;;2.55;;
62610;SDS011;48683;48.084;17.272;2022-10-19T17:25:55;6.60;;;3.10;;
62610;SDS011;48683;48.084;17.272;2022-10-19T17:28:20;7.45;;;3.17;;
62610;SDS011;48683;48.084;17.272;2022-10-19T17:30:45;6.88;;;3.45;;
62610;SDS011;48683;48.084;17.272;2022-10-19T17:33:11;2.95;;;2.30;;
62610;SDS011;48683;48.084;17.272;2022-10-19T17:35:37;5.75;;;2.60;;